Time;durP1;ratioP1;P1;durP2;ratioP2;P2;SDS_P1;SDS_P2;PMS_P1;PMS_P2;Temp;Humidity;BMP_temperature;BMP_pressure;BME280_temperature;BME280_humidity;BME280_pressure;Samples;Min_cycle;Max_cycle;Signal;HPM_P1;HPM_P2
2022/08/05 00:01:29;;;;;;;;;;;27.30;99.90;;;;;;5085263;28;19912;-78
2022/08/05 00:03:55;;;;;;;;;;;27.30;99.90;;;;;;5090293;28;19913;-79
2022/08/05 00:06:20;;;;;;;;;;;27.30;99.90;;;;;;5087224;28;19919;-78
2022/08/05 00:08:46;;;;;;;;;;;27.20;99.90;;;;;;5069419;28;19916;-77
2022/08/05 00:11:13;;;;;;;;;;;27.30;99.90;;;;;;5083812;28;19960;-77
2022/08/05 00:13:40;;;;;;;;;;;27.30;99.90;;;;;;5065413;28;20006;-78
2022/08/05 00:16:09;;;;;;;;;;;27.30;99.90;;;;;;5082443;28;19918;-77
2022/08/05 00:18:36;;;;;;;;;;;27.30;99.90;;;;;;5083349;28;19916;-79
2022/08/05 00:21:01;;;;;;;;;;;27.30;99.90;;;;;;5067040;28;20696;-78
2022/08/05 00:23:27;;;;;;;;;;;27.30;99.90;;;;;;5081231;28;20199;-78
2022/08/05 00:25:52;;;;;;;;;;;27.30;99.90;;;;;;5082763;28;19955;-77
2022/08/05 00:28:18;;;;;;;;;;;27.30;99.90;;;;;;5081373;28;20462;-78
2022/08/05 00:30:44;;;;;;;;;;;27.30;99.90;;;;;;5080113;28;19986;-79
2022/08/05 00:33:09;;;;;;;;;;;27.30;99.90;;;;;;5085181;28;19920;-78
2022/08/05 00:35:35;;;;;;;;;;;27.30;99.90;;;;;;5081938;28;19958;-77
2022/08/05 00:38:01;;;;;;;;;;;27.20;99.90;;;;;;5081527;28;20283;-79
2022/08/05 00:40:27;;;;;;;;;;;27.20;99.90;;;;;;5063728;28;19916;-78
2022/08/05 00:42:53;;;;;;;;;;;27.20;99.90;;;;;;5080579;28;19955;-78
2022/08/05 00:45:19;;;;;;;;;;;27.20;99.90;;;;;;5080323;28;19920;-78
2022/08/05 00:47:44;;;;;;;;;;;27.20;99.90;;;;;;5078035;28;20729;-78
2022/08/05 00:50:10;;;;;;;;;;;27.20;99.90;;;;;;5080212;28;19960;-79
2022/08/05 00:52:36;;;;;;;;;;;27.10;99.90;;;;;;5080770;28;19912;-78
2022/08/05 00:55:02;;;;;;;;;;;27.00;99.90;;;;;;5086013;28;19916;-78
2022/08/05 00:57:28;;;;;;;;;;;27.00;99.90;;;;;;5081639;28;19923;-79
2022/08/05 00:59:53;;;;;;;;;;;27.00;99.90;;;;;;5081855;28;20362;-78
2022/08/05 01:02:19;;;;;;;;;;;27.00;99.90;;;;;;5088351;28;19954;-78
2022/08/05 01:04:44;;;;;;;;;;;26.90;99.90;;;;;;5084245;28;19921;-77
2022/08/05 01:07:10;;;;;;;;;;;26.90;99.90;;;;;;5069417;28;20015;-78
2022/08/05 01:09:35;;;;;;;;;;;27.00;99.90;;;;;;5083584;28;19916;-77
2022/08/05 01:12:03;;;;;;;;;;;27.00;99.90;;;;;;5089951;28;19912;-77
2022/08/05 01:14:47;;;;;;;;;;;27.00;99.90;;;;;;5075327;28;19912;-77
2022/08/05 01:17:16;;;;;;;;;;;26.90;99.90;;;;;;5054984;28;19916;-77
2022/08/05 01:19:44;;;;;;;;;;;26.90;99.90;;;;;;5063196;28;19917;-78
2022/08/05 01:22:15;;;;;;;;;;;26.80;99.90;;;;;;5086220;28;20011;-77
2022/08/05 01:24:56;;;;;;;;;;;26.70;99.90;;;;;;5084859;28;19921;-78
2022/08/05 01:27:41;;;;;;;;;;;26.70;99.90;;;;;;5081861;28;20408;-78
2022/08/05 01:30:06;;;;;;;;;;;26.60;99.90;;;;;;5082592;28;20190;-78
2022/08/05 01:32:34;;;;;;;;;;;26.60;99.90;;;;;;5065507;28;20365;-78
2022/08/05 01:35:01;;;;;;;;;;;26.60;99.90;;;;;;5066633;28;19913;-78
2022/08/05 01:37:38;;;;;;;;;;;26.60;99.90;;;;;;5064900;28;19916;-77
2022/08/05 01:40:05;;;;;;;;;;;26.50;99.90;;;;;;5066607;28;20332;-78
2022/08/05 01:42:31;;;;;;;;;;;26.40;99.90;;;;;;5086236;28;19912;-78
2022/08/05 01:44:59;;;;;;;;;;;26.30;99.90;;;;;;5067569;28;19992;-77
2022/08/05 01:47:25;;;;;;;;;;;26.40;99.90;;;;;;5088496;28;19916;-77
2022/08/05 01:49:51;;;;;;;;;;;26.40;99.90;;;;;;5082120;28;19958;-78
2022/08/05 01:52:18;;;;;;;;;;;26.40;99.90;;;;;;5088070;28;19928;-77
2022/08/05 01:54:45;;;;;;;;;;;26.40;99.90;;;;;;5087182;28;19947;-78
2022/08/05 01:57:11;;;;;;;;;;;26.40;99.90;;;;;;5074843;28;19916;-79
2022/08/05 01:59:38;;;;;;;;;;;26.50;99.90;;;;;;5086487;28;20396;-79
2022/08/05 02:02:04;;;;;;;;;;;26.40;99.90;;;;;;5087825;28;19979;-78
2022/08/05 02:04:32;;;;;;;;;;;26.30;99.90;;;;;;5080821;28;19999;-77
2022/08/05 02:06:58;;;;;;;;;;;26.30;99.90;;;;;;5085020;28;19935;-78
2022/08/05 02:09:24;;;;;;;;;;;26.40;99.90;;;;;;5085469;28;20353;-78
2022/08/05 02:11:54;;;;;;;;;;;26.30;99.90;;;;;;5081989;28;19935;-78
2022/08/05 02:14:24;;;;;;;;;;;26.30;99.90;;;;;;5070183;28;19928;-78
2022/08/05 02:16:51;;;;;;;;;;;26.30;99.90;;;;;;5083550;28;19912;-77
2022/08/05 02:19:19;;;;;;;;;;;26.20;99.90;;;;;;5075011;28;20152;-78
2022/08/05 02:21:51;;;;;;;;;;;26.20;99.90;;;;;;5084832;28;20003;-78
2022/08/05 02:24:18;;;;;;;;;;;26.20;99.90;;;;;;5085744;28;20002;-76
2022/08/05 02:26:53;;;;;;;;;;;26.20;99.90;;;;;;5085702;28;20002;-76
2022/08/05 02:29:20;;;;;;;;;;;26.20;99.90;;;;;;5089966;28;20352;-78
2022/08/05 02:31:46;;;;;;;;;;;26.20;99.90;;;;;;5088845;28;19975;-77
2022/08/05 02:34:13;;;;;;;;;;;26.20;99.90;;;;;;5089607;28;19955;-77
2022/08/05 02:36:43;;;;;;;;;;;26.10;99.90;;;;;;5089129;28;19988;-78
2022/08/05 02:39:09;;;;;;;;;;;26.00;99.90;;;;;;5089936;28;19912;-78
2022/08/05 02:41:35;;;;;;;;;;;26.00;99.90;;;;;;5095457;28;19909;-78
2022/08/05 02:44:01;;;;;;;;;;;25.90;99.90;;;;;;5090423;28;19999;-78
2022/08/05 02:46:27;;;;;;;;;;;25.90;99.90;;;;;;5094216;28;20156;-77
2022/08/05 02:48:54;;;;;;;;;;;25.90;99.90;;;;;;5091858;28;20258;-79
2022/08/05 02:51:20;;;;;;;;;;;26.00;99.90;;;;;;5096617;28;19919;-77
2022/08/05 02:53:47;;;;;;;;;;;26.00;99.90;;;;;;5090326;28;20189;-77
2022/08/05 02:56:13;;;;;;;;;;;26.00;99.90;;;;;;5093567;28;19995;-76
2022/08/05 02:58:40;;;;;;;;;;;26.00;99.90;;;;;;5095642;28;19912;-77
2022/08/05 03:01:07;;;;;;;;;;;25.90;99.90;;;;;;5098247;28;19908;-77
2022/08/05 03:03:34;;;;;;;;;;;25.80;99.90;;;;;;5097915;28;19920;-77
2022/08/05 03:06:01;;;;;;;;;;;25.80;99.90;;;;;;5092726;28;19963;-77
2022/08/05 03:08:27;;;;;;;;;;;25.80;99.90;;;;;;5091904;28;19971;-78
2022/08/05 03:10:52;;;;;;;;;;;25.80;99.90;;;;;;5088092;28;21806;-77
2022/08/05 03:13:18;;;;;;;;;;;25.80;99.90;;;;;;5092490;28;19920;-78
2022/08/05 03:15:44;;;;;;;;;;;25.70;99.90;;;;;;5088675;28;19912;-77
2022/08/05 03:18:10;;;;;;;;;;;25.60;99.90;;;;;;5096080;28;21576;-77
2022/08/05 03:20:36;;;;;;;;;;;25.60;99.90;;;;;;5099965;28;19922;-77
2022/08/05 03:23:03;;;;;;;;;;;25.50;99.90;;;;;;5093457;28;19916;-78
2022/08/05 03:25:29;;;;;;;;;;;25.50;99.90;;;;;;5092552;28;19916;-77
2022/08/05 03:27:56;;;;;;;;;;;25.50;99.90;;;;;;5095577;28;19928;-78
2022/08/05 03:30:22;;;;;;;;;;;25.60;99.90;;;;;;5095394;28;19912;-78
2022/08/05 03:32:48;;;;;;;;;;;25.70;99.90;;;;;;5085546;28;19913;-78
2022/08/05 03:35:13;;;;;;;;;;;25.60;99.90;;;;;;5095525;28;20035;-78
2022/08/05 03:37:39;;;;;;;;;;;25.50;99.90;;;;;;5086633;28;19916;-77
2022/08/05 03:40:07;;;;;;;;;;;25.40;99.90;;;;;;5089134;28;19919;-77
2022/08/05 03:42:34;;;;;;;;;;;25.30;99.90;;;;;;5090359;28;19912;-79
2022/08/05 03:44:59;;;;;;;;;;;25.30;99.90;;;;;;5069346;28;19919;-78
2022/08/05 03:47:25;;;;;;;;;;;25.20;99.90;;;;;;5088020;28;19916;-78
2022/08/05 03:49:51;;;;;;;;;;;25.20;99.90;;;;;;5085664;28;19912;-78
2022/08/05 03:52:28;;;;;;;;;;;25.10;99.90;;;;;;5085427;28;19927;-78
2022/08/05 03:55:00;;;;;;;;;;;25.00;99.90;;;;;;5087998;28;19912;-78
2022/08/05 03:57:28;;;;;;;;;;;24.90;99.90;;;;;;5071753;28;19952;-78
2022/08/05 04:00:00;;;;;;;;;;;24.70;99.90;;;;;;5098632;28;20281;-77
2022/08/05 04:02:28;;;;;;;;;;;24.80;99.90;;;;;;5099112;28;19973;-78
2022/08/05 04:04:54;;;;;;;;;;;24.80;99.90;;;;;;5114110;28;19930;-78
2022/08/05 04:07:21;;;;;;;;;;;25.00;99.90;;;;;;5092609;28;19919;-79
2022/08/05 04:09:47;;;;;;;;;;;25.00;99.90;;;;;;5069339;28;20370;-78
2022/08/05 04:12:12;;;;;;;;;;;25.30;99.90;;;;;;5074183;28;19927;-77
2022/08/05 04:14:38;;;;;;;;;;;25.40;99.90;;;;;;5082668;28;19916;-78
2022/08/05 04:17:04;;;;;;;;;;;25.50;99.90;;;;;;5088085;28;19942;-78
2022/08/05 04:19:29;;;;;;;;;;;25.70;99.90;;;;;;5086800;28;19935;-77
2022/08/05 04:21:55;;;;;;;;;;;25.60;99.90;;;;;;5085900;28;19920;-78
2022/08/05 04:24:20;;;;;;;;;;;25.50;99.90;;;;;;5084503;28;19931;-78
2022/08/05 04:26:46;;;;;;;;;;;25.40;99.90;;;;;;5094222;28;20369;-78
2022/08/05 04:29:12;;;;;;;;;;;25.50;99.90;;;;;;5074684;28;19923;-77
2022/08/05 04:31:37;;;;;;;;;;;25.50;99.90;;;;;;5095759;28;19912;-77
2022/08/05 04:34:03;;;;;;;;;;;25.50;99.90;;;;;;5111848;28;19904;-78
2022/08/05 04:36:28;;;;;;;;;;;25.50;99.90;;;;;;5116358;28;19923;-77
2022/08/05 04:38:54;;;;;;;;;;;25.40;99.90;;;;;;5126064;28;19908;-78
2022/08/05 04:41:19;;;;;;;;;;;25.30;99.90;;;;;;5102344;28;19912;-76
2022/08/05 04:43:45;;;;;;;;;;;25.30;99.90;;;;;;5105936;28;19962;-77
2022/08/05 04:46:11;;;;;;;;;;;25.30;99.90;;;;;;5085501;28;19913;-78
2022/08/05 04:48:36;;;;;;;;;;;25.40;99.90;;;;;;5086281;28;19919;-78
2022/08/05 04:51:02;;;;;;;;;;;25.60;99.90;;;;;;5091811;28;19919;-78
2022/08/05 04:53:27;;;;;;;;;;;25.70;99.90;;;;;;5087298;28;20380;-78
2022/08/05 04:55:53;;;;;;;;;;;25.80;99.90;;;;;;5074704;28;19920;-78
2022/08/05 04:58:19;;;;;;;;;;;25.80;99.90;;;;;;5086588;28;19927;-78
2022/08/05 05:00:45;;;;;;;;;;;25.90;99.90;;;;;;5093252;28;19966;-80
2022/08/05 05:03:11;;;;;;;;;;;25.90;99.90;;;;;;5107039;27;20333;-78
2022/08/05 05:05:36;;;;;;;;;;;25.80;99.90;;;;;;5087089;28;19917;-77
2022/08/05 05:08:02;;;;;;;;;;;25.80;99.90;;;;;;5089687;28;19946;-78
2022/08/05 05:10:31;;;;;;;;;;;25.80;99.90;;;;;;5087269;28;19947;-78
2022/08/05 05:12:57;;;;;;;;;;;25.90;99.90;;;;;;5098196;28;19927;-78
2022/08/05 05:15:23;;;;;;;;;;;26.00;99.90;;;;;;5084226;28;19912;-78
2022/08/05 05:17:48;;;;;;;;;;;26.10;99.90;;;;;;5082207;28;20288;-78
2022/08/05 05:20:14;;;;;;;;;;;26.20;99.90;;;;;;5089915;28;20332;-78
2022/08/05 05:22:40;;;;;;;;;;;26.20;99.90;;;;;;5088236;28;19927;-78
2022/08/05 05:25:07;;;;;;;;;;;26.20;99.90;;;;;;5070251;28;19955;-78
2022/08/05 05:27:33;;;;;;;;;;;26.20;99.90;;;;;;5074527;28;19922;-78
2022/08/05 05:29:59;;;;;;;;;;;26.30;99.90;;;;;;5090258;28;20011;-79
2022/08/05 05:32:25;;;;;;;;;;;26.40;99.90;;;;;;5093599;28;19956;-78
2022/08/05 05:34:50;;;;;;;;;;;26.50;99.90;;;;;;5094494;28;19920;-78
2022/08/05 05:37:16;;;;;;;;;;;26.40;99.90;;;;;;5092601;28;19913;-79
2022/08/05 05:39:41;;;;;;;;;;;26.50;99.90;;;;;;5092899;28;19965;-77
2022/08/05 05:42:07;;;;;;;;;;;26.50;99.90;;;;;;5089685;28;19916;-77
2022/08/05 05:44:33;;;;;;;;;;;26.50;99.90;;;;;;5075267;28;19919;-77
2022/08/05 05:46:59;;;;;;;;;;;26.60;99.90;;;;;;5082884;28;19988;-79
2022/08/05 05:49:25;;;;;;;;;;;26.60;99.90;;;;;;5090550;28;19919;-78
2022/08/05 05:51:50;;;;;;;;;;;26.70;99.90;;;;;;5119087;28;19907;-79
2022/08/05 05:54:16;;;;;;;;;;;26.90;99.90;;;;;;5105336;28;19974;-77
2022/08/05 05:56:42;;;;;;;;;;;26.90;99.90;;;;;;5126183;28;19962;-77
2022/08/05 05:59:07;;;;;;;;;;;26.90;99.90;;;;;;5086471;28;19908;-78
2022/08/05 06:01:37;;;;;;;;;;;27.00;99.90;;;;;;5101275;28;20014;-77
2022/08/05 06:04:03;;;;;;;;;;;27.00;99.90;;;;;;5081382;28;19916;-78
2022/08/05 06:06:29;;;;;;;;;;;27.10;99.90;;;;;;5099798;28;20261;-78
2022/08/05 06:08:54;;;;;;;;;;;27.20;99.90;;;;;;5099894;28;19920;-77
2022/08/05 06:11:20;;;;;;;;;;;27.30;99.90;;;;;;5113349;28;19909;-78
2022/08/05 06:13:45;;;;;;;;;;;27.40;99.90;;;;;;5119434;28;19916;-77
2022/08/05 06:16:11;;;;;;;;;;;27.60;99.90;;;;;;5116630;28;19956;-77
2022/08/05 06:18:37;;;;;;;;;;;27.70;99.90;;;;;;5125074;28;20338;-77
2022/08/05 06:21:03;;;;;;;;;;;27.80;99.90;;;;;;5150464;27;19908;-78
2022/08/05 06:23:29;;;;;;;;;;;27.90;99.90;;;;;;5093801;28;19927;-78
2022/08/05 06:25:54;;;;;;;;;;;27.80;99.90;;;;;;5066698;28;19908;-78
2022/08/05 06:28:20;;;;;;;;;;;27.90;99.90;;;;;;5083197;28;20354;-79
2022/08/05 06:30:45;;;;;;;;;;;27.90;99.90;;;;;;5066120;28;19916;-79
2022/08/05 06:33:11;;;;;;;;;;;28.00;99.90;;;;;;5101329;28;19931;-78
2022/08/05 06:35:37;;;;;;;;;;;28.10;99.90;;;;;;5102071;28;19908;-78
2022/08/05 06:38:02;;;;;;;;;;;28.20;99.90;;;;;;5085228;28;19997;-78
2022/08/05 06:40:28;;;;;;;;;;;28.20;99.90;;;;;;5105936;28;19922;-78
2022/08/05 06:42:54;;;;;;;;;;;28.40;99.90;;;;;;5097671;28;20272;-78
2022/08/05 06:45:20;;;;;;;;;;;28.40;99.90;;;;;;5100284;28;19912;-78
2022/08/05 06:47:46;;;;;;;;;;;28.50;99.90;;;;;;5121341;28;19969;-77
2022/08/05 06:50:11;;;;;;;;;;;28.60;99.90;;;;;;5121738;28;19912;-79
2022/08/05 06:52:37;;;;;;;;;;;28.70;99.90;;;;;;5114822;28;19916;-79
2022/08/05 06:55:03;;;;;;;;;;;28.70;99.90;;;;;;5100240;28;19975;-78
2022/08/05 06:57:29;;;;;;;;;;;28.80;99.90;;;;;;5103074;28;19924;-77
2022/08/05 06:59:54;;;;;;;;;;;28.80;99.90;;;;;;5113897;28;19908;-80
2022/08/05 07:02:20;;;;;;;;;;;28.80;99.90;;;;;;5124151;28;20404;-79
2022/08/05 07:04:46;;;;;;;;;;;28.90;99.90;;;;;;5107851;28;19908;-77
2022/08/05 07:07:11;;;;;;;;;;;29.00;99.90;;;;;;5113461;28;19912;-79
2022/08/05 07:09:37;;;;;;;;;;;29.00;99.90;;;;;;5114506;28;19942;-78
2022/08/05 07:12:02;;;;;;;;;;;29.00;99.90;;;;;;5121795;28;19912;-79
2022/08/05 07:17:12;;;;;;;;;;;29.20;99.90;;;;;;5100398;28;19919;-78
2022/08/05 07:19:38;;;;;;;;;;;29.20;99.90;;;;;;5118887;28;20277;-79
2022/08/05 07:22:04;;;;;;;;;;;29.20;99.90;;;;;;5098342;28;20468;-79
2022/08/05 07:24:29;;;;;;;;;;;29.20;99.90;;;;;;5085146;28;19995;-79
2022/08/05 07:26:55;;;;;;;;;;;29.20;99.90;;;;;;5100371;28;19912;-79
2022/08/05 07:29:21;;;;;;;;;;;29.20;99.90;;;;;;5103894;28;19912;-81
2022/08/05 07:31:46;;;;;;;;;;;29.20;99.90;;;;;;5082487;28;20457;-80
2022/08/05 07:34:12;;;;;;;;;;;29.10;99.90;;;;;;5096961;28;19995;-78
2022/08/05 07:36:37;;;;;;;;;;;29.10;99.90;;;;;;5092423;28;19912;-80
2022/08/05 07:39:04;;;;;;;;;;;29.20;99.90;;;;;;5096886;28;19916;-80
2022/08/05 07:41:30;;;;;;;;;;;29.10;99.90;;;;;;5096411;28;19908;-79
2022/08/05 07:43:56;;;;;;;;;;;29.20;99.90;;;;;;5098453;28;20277;-70
2022/08/05 07:46:21;;;;;;;;;;;29.30;99.90;;;;;;5091613;28;20354;-70
2022/08/05 07:48:47;;;;;;;;;;;29.40;99.90;;;;;;5108973;28;19915;-71
2022/08/05 07:51:14;;;;;;;;;;;29.50;99.90;;;;;;5113118;28;19917;-71
2022/08/05 07:53:40;;;;;;;;;;;29.50;99.90;;;;;;5113358;28;19908;-70
2022/08/05 07:56:06;;;;;;;;;;;29.50;99.90;;;;;;5113121;28;20317;-72
2022/08/05 07:58:31;;;;;;;;;;;29.60;99.90;;;;;;5091152;28;19963;-70
2022/08/05 08:00:57;;;;;;;;;;;29.50;99.90;;;;;;5092535;28;19909;-73
2022/08/05 08:03:23;;;;;;;;;;;29.60;99.90;;;;;;5092375;28;20421;-70
2022/08/05 08:05:51;;;;;;;;;;;29.70;99.90;;;;;;5092016;28;20265;-69
2022/08/05 08:08:16;;;;;;;;;;;29.70;99.90;;;;;;5102529;28;19923;-69
2022/08/05 08:10:42;;;;;;;;;;;29.70;99.90;;;;;;5106625;28;20288;-71
2022/08/05 08:13:08;;;;;;;;;;;29.70;99.90;;;;;;5092773;28;19912;-70
2022/08/05 08:15:33;;;;;;;;;;;29.70;99.90;;;;;;5090961;28;20403;-72
2022/08/05 08:17:59;;;;;;;;;;;29.90;99.90;;;;;;5099894;28;20457;-72
2022/08/05 08:20:25;;;;;;;;;;;29.80;99.90;;;;;;5109151;28;19923;-70
2022/08/05 08:22:58;;;;;;;;;;;29.90;99.90;;;;;;5092249;28;20329;-74
2022/08/05 08:25:25;;;;;;;;;;;30.00;99.90;;;;;;5073381;28;19987;-72
2022/08/05 08:27:50;;;;;;;;;;;29.90;99.90;;;;;;5099105;28;19916;-71
2022/08/05 08:30:16;;;;;;;;;;;29.80;99.90;;;;;;5107611;28;19919;-71
2022/08/05 08:32:42;;;;;;;;;;;29.70;99.90;;;;;;5095186;28;20312;-70
2022/08/05 08:35:08;;;;;;;;;;;29.70;99.90;;;;;;5090420;28;19912;-71
2022/08/05 08:37:33;;;;;;;;;;;29.70;99.90;;;;;;5090659;28;19916;-71
2022/08/05 08:39:59;;;;;;;;;;;29.70;99.90;;;;;;5090930;28;19915;-71
2022/08/05 08:42:25;;;;;;;;;;;29.80;99.90;;;;;;5091020;28;20381;-70
2022/08/05 08:44:55;;;;;;;;;;;29.80;99.90;;;;;;5091396;28;19913;-71
2022/08/05 08:47:25;;;;;;;;;;;29.80;99.90;;;;;;5075758;28;19912;-70
2022/08/05 08:49:55;;;;;;;;;;;29.90;99.90;;;;;;5111959;28;19922;-71
2022/08/05 08:52:26;;;;;;;;;;;29.90;99.90;;;;;;5103772;28;19908;-71
2022/08/05 08:54:52;;;;;;;;;;;29.80;99.90;;;;;;5111705;28;19919;-70
2022/08/05 08:57:17;;;;;;;;;;;29.80;99.90;;;;;;5098844;28;20546;-71
2022/08/05 08:59:43;;;;;;;;;;;30.00;99.90;;;;;;5111969;28;19911;-72
2022/08/05 09:02:09;;;;;;;;;;;29.90;99.90;;;;;;5112410;28;19978;-71
2022/08/05 09:04:38;;;;;;;;;;;30.00;99.90;;;;;;5112027;28;20335;-70
2022/08/05 09:07:05;;;;;;;;;;;30.00;99.90;;;;;;5089909;28;20310;-70
2022/08/05 09:09:31;;;;;;;;;;;30.00;99.90;;;;;;5101135;28;20475;-70
2022/08/05 09:11:57;;;;;;;;;;;30.10;99.90;;;;;;5100606;28;20129;-71
2022/08/05 09:14:23;;;;;;;;;;;30.10;99.90;;;;;;5095398;28;20007;-71
2022/08/05 09:16:48;;;;;;;;;;;30.10;99.90;;;;;;5099067;28;19981;-70
2022/08/05 09:19:14;;;;;;;;;;;30.10;99.90;;;;;;5101323;28;19966;-70
2022/08/05 09:21:39;;;;;;;;;;;30.30;99.90;;;;;;5096954;28;19962;-70
2022/08/05 09:24:08;;;;;;;;;;;30.30;99.90;;;;;;5108699;28;19976;-70
2022/08/05 09:26:35;;;;;;;;;;;30.20;99.90;;;;;;5104793;27;19912;-71
2022/08/05 09:29:03;;;;;;;;;;;30.20;99.90;;;;;;5101122;28;19970;-70
2022/08/05 09:31:30;;;;;;;;;;;30.30;99.90;;;;;;5116349;28;19912;-72
2022/08/05 09:34:00;;;;;;;;;;;30.40;99.90;;;;;;5095262;28;20280;-70
2022/08/05 09:36:39;;;;;;;;;;;30.40;99.90;;;;;;5084927;28;19916;-71
2022/08/05 09:39:06;;;;;;;;;;;30.40;99.90;;;;;;5099828;28;19972;-70
2022/08/05 09:41:31;;;;;;;;;;;30.50;99.90;;;;;;5091141;28;19995;-72
2022/08/05 09:43:57;;;;;;;;;;;30.50;99.90;;;;;;5091225;28;20444;-69
2022/08/05 09:46:26;;;;;;;;;;;30.60;99.90;;;;;;5111138;28;19991;-70
2022/08/05 09:48:56;;;;;;;;;;;30.70;99.90;;;;;;5111462;28;20418;-70
2022/08/05 09:51:36;;;;;;;;;;;30.90;99.90;;;;;;5088932;28;19988;-71
2022/08/05 09:54:05;;;;;;;;;;;30.90;99.90;;;;;;5091696;28;19912;-71
2022/08/05 09:56:34;;;;;;;;;;;30.80;99.90;;;;;;5107696;28;19953;-72
2022/08/05 09:59:00;;;;;;;;;;;30.80;99.90;;;;;;5110812;28;19954;-69
2022/08/05 10:01:25;;;;;;;;;;;30.80;99.90;;;;;;5107070;28;20353;-71
2022/08/05 10:03:59;;;;;;;;;;;30.80;99.90;;;;;;5090517;28;19918;-69
2022/08/05 10:06:26;;;;;;;;;;;30.70;99.90;;;;;;5081279;28;19916;-71
2022/08/05 10:08:52;;;;;;;;;;;30.70;99.90;;;;;;5110192;28;19912;-70
2022/08/05 10:11:17;;;;;;;;;;;30.60;99.90;;;;;;5089098;28;19942;-70
2022/08/05 10:13:43;;;;;;;;;;;30.60;99.90;;;;;;5088480;28;19967;-71
2022/08/05 10:16:27;;;;;;;;;;;30.60;99.90;;;;;;5089430;28;19917;-70
2022/08/05 10:18:53;;;;;;;;;;;30.60;99.90;;;;;;5090117;28;19908;-71
2022/08/05 10:21:19;;;;;;;;;;;30.70;99.90;;;;;;5085670;28;19912;-70
2022/08/05 10:23:45;;;;;;;;;;;30.80;99.90;;;;;;5095222;28;21793;-70
2022/08/05 10:26:13;;;;;;;;;;;30.80;99.90;;;;;;5097819;28;19912;-71
2022/08/05 10:28:39;;;;;;;;;;;30.70;99.90;;;;;;5096329;28;19912;-71
2022/08/05 10:31:05;;;;;;;;;;;30.70;99.90;;;;;;5090861;28;19996;-70
2022/08/05 10:33:32;;;;;;;;;;;30.80;99.90;;;;;;5108856;28;20321;-71
2022/08/05 10:36:02;;;;;;;;;;;30.80;99.90;;;;;;5106823;28;19964;-71
2022/08/05 10:38:29;;;;;;;;;;;30.80;99.90;;;;;;5094589;28;19908;-71
2022/08/05 10:41:04;;;;;;;;;;;30.90;99.90;;;;;;5095628;28;19991;-71
2022/08/05 10:43:35;;;;;;;;;;;31.00;99.90;;;;;;5094064;28;19984;-70
2022/08/05 10:46:06;;;;;;;;;;;31.10;99.90;;;;;;5088463;28;20370;-71
2022/08/05 10:48:31;;;;;;;;;;;31.00;99.90;;;;;;5091978;28;19916;-71
2022/08/05 10:50:57;;;;;;;;;;;31.10;99.90;;;;;;5092829;28;20590;-72
2022/08/05 10:53:34;;;;;;;;;;;31.20;99.90;;;;;;5100790;28;19912;-70
2022/08/05 10:56:04;;;;;;;;;;;31.30;99.90;;;;;;5091204;28;20094;-71
2022/08/05 10:58:30;;;;;;;;;;;31.40;99.90;;;;;;5056763;28;19916;-71
2022/08/05 11:00:55;;;;;;;;;;;31.40;99.90;;;;;;5086346;28;19912;-71
2022/08/05 11:03:21;;;;;;;;;;;31.50;99.90;;;;;;5089557;28;20440;-70
2022/08/05 11:06:04;;;;;;;;;;;31.40;99.90;;;;;;5092475;28;19999;-70
2022/08/05 11:08:30;;;;;;;;;;;31.40;99.90;;;;;;5095958;28;19916;-71
2022/08/05 11:11:15;;;;;;;;;;;31.40;99.90;;;;;;5091269;28;19935;-72
2022/08/05 11:13:42;;;;;;;;;;;31.30;99.90;;;;;;5091825;28;19943;-72
2022/08/05 11:16:21;;;;;;;;;;;31.30;99.90;;;;;;5090520;28;19911;-71
2022/08/05 11:18:46;;;;;;;;;;;31.50;99.90;;;;;;5072038;28;20274;-71
2022/08/05 11:21:30;;;;;;;;;;;31.80;99.90;;;;;;5097300;28;19919;-70
2022/08/05 11:23:56;;;;;;;;;;;31.80;99.90;;;;;;5093156;28;20381;-72
2022/08/05 11:26:22;;;;;;;;;;;31.70;99.90;;;;;;5105277;28;19908;-70
2022/08/05 11:28:49;;;;;;;;;;;31.60;99.90;;;;;;5094902;28;19924;-74
2022/08/05 11:31:14;;;;;;;;;;;31.60;99.90;;;;;;5092735;28;20002;-69
2022/08/05 11:33:50;;;;;;;;;;;31.50;99.90;;;;;;5093512;28;20003;-71
2022/08/05 11:36:39;;;;;;;;;;;31.40;99.90;;;;;;5094914;28;20441;-71
2022/08/05 11:39:05;;;;;;;;;;;31.50;99.90;;;;;;5089185;28;19927;-70
2022/08/05 11:41:34;;;;;;;;;;;31.50;99.90;;;;;;5093525;28;19913;-71
2022/08/05 11:43:59;;;;;;;;;;;31.30;99.90;;;;;;5090658;28;19916;-71
2022/08/05 11:46:30;;;;;;;;;;;31.40;99.90;;;;;;5091671;28;20449;-71
2022/08/05 11:48:56;;;;;;;;;;;31.50;99.90;;;;;;5101226;28;19928;-71
2022/08/05 11:51:22;;;;;;;;;;;31.60;99.90;;;;;;5104442;28;19998;-71
2022/08/05 11:53:48;;;;;;;;;;;31.80;99.90;;;;;;5109134;28;19907;-71
2022/08/05 11:56:14;;;;;;;;;;;31.70;99.90;;;;;;5088225;28;19934;-72
2022/08/05 11:58:41;;;;;;;;;;;31.80;99.90;;;;;;5091115;28;19913;-72
2022/08/05 12:01:17;;;;;;;;;;;32.00;99.90;;;;;;5092267;28;19916;-72
2022/08/05 12:03:44;;;;;;;;;;;32.00;99.90;;;;;;5095680;28;19969;-73
2022/08/05 12:06:10;;;;;;;;;;;31.90;99.90;;;;;;5071694;28;19939;-71
2022/08/05 12:08:39;;;;;;;;;;;31.80;99.90;;;;;;5096429;28;19916;-71
2022/08/05 12:11:06;;;;;;;;;;;31.80;99.90;;;;;;5090812;28;19912;-72
2022/08/05 12:13:33;;;;;;;;;;;31.70;99.90;;;;;;5089354;28;19912;-72
2022/08/05 12:15:59;;;;;;;;;;;31.70;99.90;;;;;;5093399;28;19951;-72
2022/08/05 12:18:31;;;;;;;;;;;31.70;99.90;;;;;;5104700;28;20001;-71
2022/08/05 12:21:07;;;;;;;;;;;31.60;99.90;;;;;;5091601;28;19919;-72
2022/08/05 12:23:32;;;;;;;;;;;31.70;99.90;;;;;;5095684;28;19982;-71
2022/08/05 12:25:58;;;;;;;;;;;31.90;99.90;;;;;;5092282;28;19969;-72
2022/08/05 12:28:34;;;;;;;;;;;32.10;99.90;;;;;;5098817;28;19970;-70
2022/08/05 12:31:00;;;;;;;;;;;32.00;99.90;;;;;;5091447;28;19912;-71
2022/08/05 12:33:26;;;;;;;;;;;32.20;99.90;;;;;;5096842;28;19925;-70
2022/08/05 12:35:53;;;;;;;;;;;32.10;99.90;;;;;;5098476;28;19912;-71
2022/08/05 12:38:18;;;;;;;;;;;32.20;99.90;;;;;;5089976;28;19919;-71
2022/08/05 12:40:44;;;;;;;;;;;32.10;99.90;;;;;;5094822;28;19917;-71
2022/08/05 12:43:10;;;;;;;;;;;32.30;99.90;;;;;;5093769;28;20006;-72
2022/08/05 12:45:36;;;;;;;;;;;32.30;99.90;;;;;;5094201;28;19938;-69
2022/08/05 12:48:14;;;;;;;;;;;32.10;99.90;;;;;;5102369;28;20384;-71
2022/08/05 12:50:39;;;;;;;;;;;32.00;99.90;;;;;;5091543;28;19955;-71
2022/08/05 12:53:05;;;;;;;;;;;32.20;99.90;;;;;;5092793;28;20288;-71
2022/08/05 12:55:30;;;;;;;;;;;32.30;99.90;;;;;;5088904;28;19908;-70
2022/08/05 12:57:57;;;;;;;;;;;32.20;99.90;;;;;;5093241;28;19958;-70
2022/08/05 13:00:24;;;;;;;;;;;32.20;99.90;;;;;;5106007;28;20318;-73
2022/08/05 13:02:51;;;;;;;;;;;32.10;99.90;;;;;;5108140;28;19923;-71
2022/08/05 13:05:16;;;;;;;;;;;32.00;99.90;;;;;;5093755;28;20422;-70
2022/08/05 13:07:44;;;;;;;;;;;31.90;99.90;;;;;;5108157;28;20030;-72
2022/08/05 13:10:10;;;;;;;;;;;31.80;99.90;;;;;;5111172;28;20399;-71
2022/08/05 13:12:40;;;;;;;;;;;31.90;99.90;;;;;;5110058;28;19907;-71
2022/08/05 13:15:08;;;;;;;;;;;31.90;99.90;;;;;;5090177;28;19912;-71
2022/08/05 13:17:34;;;;;;;;;;;31.80;99.90;;;;;;5082405;28;19920;-71
2022/08/05 13:20:05;;;;;;;;;;;31.80;99.90;;;;;;5099229;28;20273;-72
2022/08/05 13:22:35;;;;;;;;;;;31.90;99.90;;;;;;5070568;28;19995;-72
2022/08/05 13:25:03;;;;;;;;;;;31.90;99.90;;;;;;5089147;28;19909;-71
2022/08/05 13:27:33;;;;;;;;;;;32.10;99.90;;;;;;5085636;28;19912;-70
2022/08/05 13:29:59;;;;;;;;;;;32.20;99.90;;;;;;5088479;28;20361;-70
2022/08/05 13:32:25;;;;;;;;;;;32.20;99.90;;;;;;5089683;28;19955;-70
2022/08/05 13:34:51;;;;;;;;;;;32.20;99.90;;;;;;5088754;28;19913;-70
2022/08/05 13:37:17;;;;;;;;;;;32.10;99.90;;;;;;5076774;28;19908;-73
2022/08/05 13:39:43;;;;;;;;;;;31.90;99.90;;;;;;5095033;28;19916;-71
2022/08/05 13:42:10;;;;;;;;;;;31.90;99.90;;;;;;5106060;28;19973;-71
2022/08/05 13:44:35;;;;;;;;;;;31.90;99.90;;;;;;5100147;28;20006;-70
2022/08/05 13:47:01;;;;;;;;;;;31.80;99.90;;;;;;5095571;28;20471;-71
2022/08/05 13:49:27;;;;;;;;;;;31.90;99.90;;;;;;5088892;28;20123;-71
2022/08/05 13:51:52;;;;;;;;;;;31.90;99.90;;;;;;5110414;28;19947;-71
2022/08/05 13:54:19;;;;;;;;;;;32.00;99.90;;;;;;5096685;28;19915;-72
2022/08/05 13:56:45;;;;;;;;;;;32.10;99.90;;;;;;5104909;28;19974;-71
2022/08/05 13:59:10;;;;;;;;;;;32.20;99.90;;;;;;5105471;28;20387;-71
2022/08/05 14:01:36;;;;;;;;;;;32.10;99.90;;;;;;5082864;28;19935;-70
2022/08/05 14:06:46;;;;;;;;;;;32.20;99.90;;;;;;5117057;28;19941;-70
2022/08/05 14:09:11;;;;;;;;;;;32.30;99.90;;;;;;5092339;28;19911;-71
2022/08/05 14:11:40;;;;;;;;;;;32.40;99.90;;;;;;5089584;28;19954;-70
2022/08/05 14:14:08;;;;;;;;;;;32.50;99.90;;;;;;5113280;28;20022;-71
2022/08/05 14:16:34;;;;;;;;;;;32.50;99.90;;;;;;5104591;28;19919;-72
2022/08/05 14:18:59;;;;;;;;;;;32.50;99.90;;;;;;5091304;28;19939;-70
2022/08/05 14:21:25;;;;;;;;;;;32.30;99.90;;;;;;5093592;28;20009;-71